Time;durP1;ratioP1;P1;durP2;ratioP2;P2;SDS_P1;SDS_P2;PMS_P1;PMS_P2;Temp;Humidity;BMP_temperature;BMP_pressure;BME280_temperature;BME280_humidity;BME280_pressure;Samples;Min_cycle;Max_cycle;Signal;HPM_P1;HPM_P2
2022/12/01 00:00:33;;;;;;;35.15;14.90;;;;;;;5.36;100.00;102519.81;5078685;28;20032;-88
2022/12/01 00:02:58;;;;;;;35.33;16.47;;;;;;;5.33;100.00;102517.41;5096542;28;20085;-88
2022/12/01 00:05:24;;;;;;;34.80;14.97;;;;;;;5.34;100.00;102508.31;5078331;28;20460;-88
2022/12/01 00:07:51;;;;;;;34.30;15.00;;;;;;;5.38;100.00;102515.13;5078004;28;20028;-88
2022/12/01 00:10:26;;;;;;;32.93;15.13;;;;;;;5.40;100.00;102518.53;5078672;28;20035;-88
2022/12/01 00:12:54;;;;;;;34.85;15.70;;;;;;;5.35;100.00;102512.72;5096910;28;20038;-88
2022/12/01 00:15:21;;;;;;;34.90;15.68;;;;;;;5.38;100.00;102516.97;5096553;28;20028;-89
2022/12/01 00:17:47;;;;;;;33.25;15.40;;;;;;;5.37;100.00;102515.25;5077698;28;20024;-88
2022/12/01 00:20:14;;;;;;;34.25;15.65;;;;;;;5.36;100.00;102508.16;5096193;28;20027;-88
2022/12/01 00:22:47;;;;;;;34.97;14.77;;;;;;;5.39;100.00;102507.91;5079015;28;20032;-88
2022/12/01 00:25:16;;;;;;;35.95;14.57;;;;;;;5.35;100.00;102501.94;5079419;28;20027;-88
2022/12/01 00:27:49;;;;;;;34.60;15.85;;;;;;;5.40;100.00;102509.59;5078153;28;20031;-89
2022/12/01 00:30:16;;;;;;;38.38;15.85;;;;;;;5.37;100.00;102505.34;5078262;28;20028;-88
2022/12/01 00:32:41;;;;;;;38.90;16.08;;;;;;;5.41;100.00;102511.31;5077810;28;20032;-88
2022/12/01 00:35:07;;;;;;;40.03;16.37;;;;;;;5.42;100.00;102508.47;5078182;28;20028;-89
2022/12/01 00:37:33;;;;;;;34.22;15.60;;;;;;;5.35;100.00;102499.25;5095954;28;20043;-89
2022/12/01 00:39:59;;;;;;;38.23;16.40;;;;;;;5.41;100.00;102512.16;5077482;28;20032;-89
2022/12/01 00:42:25;;;;;;;36.85;15.68;;;;;;;5.32;100.00;102496.84;5095372;28;20027;-89
2022/12/01 00:44:53;;;;;;;39.00;16.17;;;;;;;5.33;100.00;102498.56;5077605;28;20039;-89
2022/12/01 00:47:19;;;;;;;39.13;16.35;;;;;;;5.39;100.00;102511.44;5077458;28;20125;-88
2022/12/01 00:49:45;;;;;;;38.22;16.55;;;;;;;5.39;100.00;102511.44;5077126;28;20148;-88
2022/12/01 00:52:13;;;;;;;37.13;14.85;;;;;;;5.39;100.00;102505.22;5095964;28;20110;-88
2022/12/01 00:54:39;;;;;;;36.53;15.73;;;;;;;5.36;100.00;102500.09;5060603;28;20028;-88
2022/12/01 00:57:08;;;;;;;36.53;15.75;;;;;;;5.40;100.00;102507.78;5061007;28;20430;-88
2022/12/01 00:59:34;;;;;;;39.50;16.50;;;;;;;5.39;100.00;102506.06;5077562;28;20032;-88
2022/12/01 01:02:05;;;;;;;41.65;16.17;;;;;;;5.35;100.00;102496.56;5060602;28;20032;-88
2022/12/01 01:04:33;;;;;;;46.97;17.35;;;;;;;5.38;100.00;102504.34;5077330;28;20020;-88
2022/12/01 01:06:58;;;;;;;44.13;16.48;;;;;;;5.42;100.00;102521.09;5077153;28;20106;-88
2022/12/01 01:09:24;;;;;;;48.53;17.20;;;;;;;5.36;100.00;102511.72;5061550;28;20036;-88
2022/12/01 01:11:51;;;;;;;46.27;16.47;;;;;;;5.36;100.00;102511.72;5079108;28;20036;-89
2022/12/01 01:14:16;;;;;;;46.20;17.92;;;;;;;5.37;100.00;102508.03;5066044;28;20028;-88
2022/12/01 01:16:41;;;;;;;44.30;17.20;;;;;;;5.43;100.00;102529.03;5080626;28;20032;-88
2022/12/01 01:19:07;;;;;;;46.28;17.73;;;;;;;5.41;100.00;102517.53;5077430;28;20032;-88
2022/12/01 01:21:35;;;;;;;51.73;18.33;;;;;;;5.40;100.00;102520.38;5076759;28;20110;-88
2022/12/01 01:24:01;;;;;;;47.65;17.42;;;;;;;5.38;100.00;102522.34;5094842;28;20054;-89
2022/12/01 01:26:31;;;;;;;48.43;18.60;;;;;;;5.35;100.00;102525.34;5076499;28;20468;-88
2022/12/01 01:28:59;;;;;;;50.70;18.52;;;;;;;5.37;100.00;102524.19;5077052;28;20040;-88
2022/12/01 01:31:27;;;;;;;47.05;17.38;;;;;;;5.37;100.00;102526.88;5076783;28;20024;-88
2022/12/01 01:33:57;;;;;;;48.83;17.83;;;;;;;5.43;100.00;102534.41;5076469;28;20468;-88
2022/12/01 01:36:24;;;;;;;43.78;16.95;;;;;;;5.37;100.00;102531.41;5094781;28;20071;-88
2022/12/01 01:38:53;;;;;;;48.50;17.27;;;;;;;5.41;100.00;102541.75;5094628;28;20111;-88
2022/12/01 01:41:20;;;;;;;45.70;16.92;;;;;;;5.42;100.00;102540.78;5094463;28;20111;-89
2022/12/01 01:43:51;;;;;;;46.90;17.27;;;;;;;5.41;100.00;102549.00;5076842;28;20028;-89
2022/12/01 01:46:28;;;;;;;45.33;16.87;;;;;;;5.39;100.00;102543.75;5076109;28;20028;-88
2022/12/01 01:49:01;;;;;;;47.90;16.75;;;;;;;5.42;100.00;102539.94;5076122;28;20136;-87
2022/12/01 01:51:49;;;;;;;43.90;16.35;;;;;;;5.45;100.00;102536.97;5076172;28;20123;-88
2022/12/01 01:54:34;;;;;;;39.80;15.13;;;;;;;5.42;100.00;102538.09;5076155;28;20028;-88
2022/12/01 01:57:05;;;;;;;43.45;16.00;;;;;;;5.42;100.00;102548.00;5076190;28;20042;-88
2022/12/01 01:59:38;;;;;;;48.43;16.93;;;;;;;5.42;100.00;102548.84;5076361;28;20024;-88
2022/12/01 02:02:11;;;;;;;41.85;15.98;;;;;;;5.43;100.00;102547.88;5076432;28;20123;-88
2022/12/01 02:04:41;;;;;;;41.72;16.30;;;;;;;5.42;100.00;102546.16;5075851;28;20020;-88
2022/12/01 02:07:09;;;;;;;43.75;15.95;;;;;;;5.42;100.00;102546.16;5075696;28;20063;-88
2022/12/01 02:09:44;;;;;;;43.78;15.93;;;;;;;5.45;100.00;102547.72;5076246;28;20028;-88
2022/12/01 02:12:31;;;;;;;46.17;15.90;;;;;;;5.50;100.00;102550.84;5059357;28;20051;-88
2022/12/01 02:15:33;;;;;;;46.95;16.52;;;;;;;5.50;100.00;102547.31;5075794;28;20468;-87
2022/12/01 02:18:45;;;;;;;43.22;16.13;;;;;;;5.53;100.00;102550.56;5093485;28;20031;-88
2022/12/01 02:21:42;;;;;;;43.17;15.63;;;;;;;5.51;100.00;102549.84;4975674;28;20037;-87
2022/12/01 02:24:34;;;;;;;46.03;15.32;;;;;;;5.51;100.00;102547.16;4973126;28;20035;-88
2022/12/01 02:27:48;;;;;;;45.33;16.20;;;;;;;5.54;100.00;102540.66;5084889;28;20044;-88
2022/12/01 02:30:43;;;;;;;43.10;16.60;;;;;;;5.51;100.00;102541.78;4992589;28;20034;-88
2022/12/01 02:33:28;;;;;;;41.88;16.27;;;;;;;5.54;100.00;102546.88;4972783;28;20038;-88
2022/12/01 02:36:00;;;;;;;48.30;17.55;;;;;;;5.49;100.00;102540.22;4975981;28;20034;-88
2022/12/01 02:38:36;;;;;;;43.45;16.08;;;;;;;5.49;100.00;102548.28;5043981;28;20067;-88
2022/12/01 02:41:18;;;;;;;49.53;17.50;;;;;;;5.45;100.00;102542.34;5075978;28;20039;-88
2022/12/01 02:43:47;;;;;;;49.45;17.70;;;;;;;5.46;100.00;102549.41;5076047;28;20460;-88
2022/12/01 02:46:29;;;;;;;46.20;17.23;;;;;;;5.47;100.00;102540.34;5079801;28;20123;-88
2022/12/01 02:49:01;;;;;;;52.53;18.30;;;;;;;5.45;100.00;102545.03;5079570;28;20051;-88
2022/12/01 02:51:34;;;;;;;50.80;17.13;;;;;;;5.45;100.00;102545.88;5079372;28;20093;-88
2022/12/01 02:54:02;;;;;;;45.93;17.83;;;;;;;5.48;100.00;102550.13;5098099;28;20460;-88
2022/12/01 02:56:28;;;;;;;47.55;17.75;;;;;;;5.44;100.00;102535.25;5079890;28;20031;-88
2022/12/01 02:59:07;;;;;;;47.75;17.67;;;;;;;5.43;100.00;102545.19;5079204;28;20099;-88
2022/12/01 03:02:07;;;;;;;48.60;17.08;;;;;;;5.49;100.00;102551.81;5079635;28;20123;-88
2022/12/01 03:04:44;;;;;;;48.83;17.33;;;;;;;5.47;100.00;102550.28;5097654;28;20067;-88
2022/12/01 03:07:35;;;;;;;;;;;;;;;;;;;;;
2022/12/01 03:10:32;;;;;;;46.55;16.95;;;;;;;5.48;100.00;102557.34;5097392;28;20034;-88
2022/12/01 03:13:18;;;;;;;45.97;17.02;;;;;;;5.43;100.00;102550.56;5079187;28;20024;-88
2022/12/01 03:16:17;;;;;;;51.00;17.33;;;;;;;5.47;100.00;102551.13;5097229;28;20032;-88
2022/12/01 03:18:58;;;;;;;44.55;16.83;;;;;;;5.47;100.00;102547.59;5078897;28;20036;-88
2022/12/01 03:21:33;;;;;;;50.63;18.43;;;;;;;5.44;100.00;102549.56;5097932;28;20028;-88
2022/12/01 03:24:06;;;;;;;49.75;17.90;;;;;;;5.47;100.00;102552.97;5097349;28;20032;-88
2022/12/01 03:26:35;;;;;;;45.03;17.17;;;;;;;5.46;100.00;102541.34;5079182;28;20028;-87
2022/12/01 03:29:42;;;;;;;45.97;17.83;;;;;;;5.50;100.00;102550.00;5078361;28;20369;-88
2022/12/01 03:32:25;;;;;;;42.83;16.95;;;;;;;5.45;100.00;102545.88;5078307;28;20097;-88
2022/12/01 03:35:03;;;;;;;45.97;16.80;;;;;;;5.47;100.00;102545.75;5097130;28;20031;-88
2022/12/01 03:37:36;;;;;;;50.42;17.75;;;;;;;5.48;100.00;102551.97;5079059;28;20040;-88
2022/12/01 03:40:08;;;;;;;45.28;17.40;;;;;;;5.47;100.00;102550.28;5079055;28;20032;-88
2022/12/01 03:42:41;;;;;;;41.63;16.48;;;;;;;5.44;100.00;102546.84;5097020;28;20543;-88
2022/12/01 03:45:14;;;;;;;43.05;17.25;;;;;;;5.42;100.00;102543.47;5097176;28;20036;-88
2022/12/01 03:47:47;;;;;;;47.43;17.30;;;;;;;5.42;100.00;102539.94;5078492;28;20403;-88
2022/12/01 03:50:15;;;;;;;43.28;16.80;;;;;;;5.44;100.00;102549.56;5078453;28;20048;-87
2022/12/01 03:52:44;;;;;;;45.60;17.67;;;;;;;5.45;100.00;102551.25;5078708;28;20101;-88
2022/12/01 03:55:36;;;;;;;48.53;18.17;;;;;;;5.42;100.00;102542.63;5077920;28;20113;-88
2022/12/01 03:58:14;;;;;;;42.17;16.65;;;;;;;5.43;100.00;102552.38;5096557;28;20464;-87
2022/12/01 04:00:45;;;;;;;45.40;18.50;;;;;;;5.42;100.00;102553.41;5097191;28;20034;-88
2022/12/01 04:03:17;;;;;;;47.63;18.58;;;;;;;5.43;100.00;102553.25;5078691;28;20032;-88
2022/12/01 04:05:43;;;;;;;46.95;18.00;;;;;;;5.44;100.00;102554.09;5097121;28;20448;-88
2022/12/01 04:08:08;;;;;;;45.83;17.67;;;;;;;5.44;100.00;102551.41;5078557;28;20039;-88
2022/12/01 04:10:34;;;;;;;43.78;16.70;;;;;;;5.40;100.00;102552.66;5061151;28;20032;-88
2022/12/01 04:13:02;;;;;;;46.67;19.10;;;;;;;5.39;100.00;102548.28;5078060;28;20066;-88
2022/12/01 04:15:33;;;;;;;41.67;16.90;;;;;;;5.39;100.00;102553.69;5096386;28;20024;-89
2022/12/01 04:17:58;;;;;;;45.90;17.30;;;;;;;5.38;100.00;102552.81;5096524;28;20491;-88
2022/12/01 04:20:26;;;;;;;49.77;18.27;;;;;;;5.39;100.00;102551.81;5078250;28;20035;-88
2022/12/01 04:23:04;;;;;;;40.28;17.33;;;;;;;5.41;100.00;102563.28;5077897;28;20118;-88
2022/12/01 04:25:32;;;;;;;43.67;16.13;;;;;;;5.41;100.00;102557.06;5061232;28;20062;-88
2022/12/01 04:27:58;;;;;;;41.40;17.27;;;;;;;5.43;100.00;102553.25;5096018;28;20056;-88
2022/12/01 04:30:26;;;;;;;41.60;15.70;;;;;;;5.45;100.00;102556.66;5095742;28;20048;-88
2022/12/01 04:32:52;;;;;;;44.35;16.38;;;;;;;5.43;100.00;102550.56;5095522;28;20093;-88
2022/12/01 04:35:20;;;;;;;40.60;16.48;;;;;;;5.44;100.00;102549.56;5077597;28;20040;-88
2022/12/01 04:37:47;;;;;;;43.30;18.23;;;;;;;5.43;100.00;102553.25;5077341;28;20027;-88
2022/12/01 04:40:17;;;;;;;44.10;17.17;;;;;;;5.45;100.00;102561.19;5077533;28;20032;-88
2022/12/01 04:42:43;;;;;;;40.95;16.77;;;;;;;5.45;100.00;102555.81;5078067;28;20089;-88
2022/12/01 04:45:11;;;;;;;43.00;17.83;;;;;;;5.45;100.00;102553.94;5077155;28;20430;-88
2022/12/01 04:47:42;;;;;;;45.22;17.92;;;;;;;5.45;100.00;102547.72;5077034;28;20270;-88
2022/12/01 04:50:15;;;;;;;40.97;17.30;;;;;;;5.47;100.00;102552.97;5076699;28;20055;-88
2022/12/01 04:52:43;;;;;;;36.72;15.40;;;;;;;5.47;100.00;102551.13;5077333;28;20039;-88
2022/12/01 04:55:14;;;;;;;38.40;17.33;;;;;;;5.44;100.00;102554.09;5077099;28;20040;-88
2022/12/01 04:57:42;;;;;;;44.05;17.20;;;;;;;5.42;100.00;102553.41;5078403;28;20075;-88
2022/12/01 05:00:14;;;;;;;41.65;16.42;;;;;;;5.43;100.00;102553.25;5076890;28;20127;-88
2022/12/01 05:02:43;;;;;;;39.58;17.13;;;;;;;5.42;100.00;102553.41;5095668;28;20133;-88
2022/12/01 05:05:13;;;;;;;45.17;17.58;;;;;;;5.44;100.00;102552.25;5076628;28;20539;-88
2022/12/01 05:07:40;;;;;;;43.33;17.98;;;;;;;5.43;100.00;102550.56;5094671;28;20040;-88
2022/12/01 05:10:12;;;;;;;42.53;17.17;;;;;;;5.44;100.00;102551.41;5076701;28;20035;-88
2022/12/01 05:12:45;;;;;;;42.78;18.05;;;;;;;5.42;100.00;102542.63;5077077;28;20024;-88
2022/12/01 05:15:15;;;;;;;41.53;15.98;;;;;;;5.41;100.00;102546.31;5061279;28;20088;-87
2022/12/01 05:17:49;;;;;;;44.88;17.60;;;;;;;5.43;100.00;102544.31;5076809;28;20115;-88
2022/12/01 05:23:15;;;;;;;39.75;16.63;;;;;;;5.45;100.00;102556.66;5094853;28;20043;-88
2022/12/01 05:25:43;;;;;;;41.92;18.20;;;;;;;5.47;100.00;102552.97;5094638;28;20024;-87
2022/12/01 05:28:09;;;;;;;40.35;17.40;;;;;;;5.42;100.00;102554.25;5076998;28;20097;-87
2022/12/01 05:30:35;;;;;;;45.80;17.67;;;;;;;5.42;100.00;102550.72;5076511;28;20475;-88
2022/12/01 05:33:00;;;;;;;40.40;16.48;;;;;;;5.41;100.00;102554.38;5094733;28;20286;-87
2022/12/01 05:35:28;;;;;;;39.23;16.83;;;;;;;5.40;100.00;102556.22;5094445;28;20073;-88
2022/12/01 05:37:54;;;;;;;44.65;17.38;;;;;;;5.43;100.00;102563.16;5094462;28;20035;-88
2022/12/01 05:40:19;;;;;;;43.38;16.98;;;;;;;5.39;100.00;102562.59;5060229;28;20043;-87
2022/12/01 05:42:45;;;;;;;40.77;17.07;;;;;;;5.39;100.00;102565.28;5059821;28;20036;-88
2022/12/01 05:45:10;;;;;;;42.47;16.97;;;;;;;5.42;100.00;102564.16;5076876;28;20371;-88
2022/12/01 05:47:36;;;;;;;43.10;16.98;;;;;;;5.42;100.00;102562.31;5094366;28;20032;-88
2022/12/01 05:50:05;;;;;;;41.20;18.03;;;;;;;5.44;100.00;102554.09;5076643;28;20044;-87
2022/12/01 05:52:34;;;;;;;37.63;16.23;;;;;;;5.41;100.00;102560.59;5076216;28;20024;-88
2022/12/01 05:55:00;;;;;;;42.03;17.85;;;;;;;5.40;100.00;102561.63;5076067;28;20021;-87
2022/12/01 05:57:30;;;;;;;41.40;16.27;;;;;;;5.40;100.00;102567.00;5060107;28;20446;-88
2022/12/01 05:59:56;;;;;;;38.40;16.88;;;;;;;5.38;100.00;102568.97;5076047;28;20024;-88
2022/12/01 06:02:22;;;;;;;40.15;16.88;;;;;;;5.40;100.00;102563.44;5076061;28;20030;-88
2022/12/01 06:04:47;;;;;;;37.60;16.25;;;;;;;5.42;100.00;102561.47;5076268;28;20107;-88
2022/12/01 06:07:13;;;;;;;40.37;16.00;;;;;;;5.41;100.00;102568.69;5076583;28;20032;-88
2022/12/01 06:09:38;;;;;;;38.33;16.50;;;;;;;5.42;100.00;102565.00;5094723;28;20482;-87
2022/12/01 06:12:07;;;;;;;44.00;16.83;;;;;;;5.42;100.00;102573.09;5094145;28;20062;-88
2022/12/01 06:14:42;;;;;;;42.17;16.33;;;;;;;5.39;100.00;102565.28;5058881;28;20491;-88
2022/12/01 06:17:08;;;;;;;43.10;17.52;;;;;;;5.37;100.00;102569.09;5076338;28;20044;-88
2022/12/01 06:19:33;;;;;;;42.33;17.03;;;;;;;5.36;100.00;102570.94;5093565;28;20034;-88
2022/12/01 06:22:01;;;;;;;44.50;17.38;;;;;;;5.37;100.00;102561.88;5093841;28;20039;-88
2022/12/01 06:24:31;;;;;;;40.43;17.13;;;;;;;5.39;100.00;102572.53;5075911;28;20032;-86
2022/12/01 06:26:57;;;;;;;41.50;16.67;;;;;;;5.36;100.00;102564.69;5075652;28;20038;-87
2022/12/01 06:29:22;;;;;;;43.23;17.00;;;;;;;5.36;100.00;102570.94;5075247;28;20028;-87
2022/12/01 06:31:47;;;;;;;43.15;17.10;;;;;;;5.34;100.00;102570.22;5093489;28;20262;-84
2022/12/01 06:34:13;;;;;;;43.97;16.90;;;;;;;5.38;100.00;102574.34;5042135;28;20482;-87
2022/12/01 06:36:38;;;;;;;44.13;17.17;;;;;;;5.38;100.00;102573.50;5093614;28;20120;-86
2022/12/01 06:39:11;;;;;;;47.40;18.17;;;;;;;5.39;100.00;102573.38;5059337;28;20040;-87
2022/12/01 06:41:42;;;;;;;44.33;17.50;;;;;;;5.40;100.00;102575.06;5075153;28;20059;-86
2022/12/01 06:44:11;;;;;;;42.45;17.65;;;;;;;5.38;100.00;102576.19;5075882;28;20150;-86
2022/12/01 06:46:38;;;;;;;43.83;16.52;;;;;;;5.39;100.00;102573.38;5075679;28;20031;-86
2022/12/01 06:49:04;;;;;;;41.92;17.85;;;;;;;5.37;100.00;102578.00;5093495;28;20048;-86
2022/12/01 06:51:32;;;;;;;48.07;17.53;;;;;;;5.34;100.00;102578.28;5075488;28;20480;-87
2022/12/01 06:53:58;;;;;;;43.97;16.75;;;;;;;5.32;100.00;102577.59;5093140;28;20105;-87
2022/12/01 06:56:24;;;;;;;41.35;16.42;;;;;;;5.30;100.00;102571.50;5075241;28;20032;-86
2022/12/01 06:58:50;;;;;;;44.10;16.97;;;;;;;5.29;100.00;102580.56;5075195;28;20070;-86
2022/12/01 07:01:16;;;;;;;44.08;16.65;;;;;;;5.29;100.00;102582.41;5093397;28;20024;-86
2022/12/01 07:03:42;;;;;;;44.70;17.23;;;;;;;5.31;100.00;102593.88;5093706;28;20080;-87
2022/12/01 07:06:08;;;;;;;45.57;16.47;;;;;;;5.30;100.00;102592.16;5075108;28;20110;-86
2022/12/01 07:08:33;;;;;;;43.95;16.58;;;;;;;5.30;100.00;102597.56;5074706;28;20104;-85
2022/12/01 07:11:02;;;;;;;39.43;15.37;;;;;;;5.32;100.00;102600.97;5093656;28;20353;-86
2022/12/01 07:13:27;;;;;;;40.35;16.00;;;;;;;5.31;100.00;102608.19;5074610;28;20027;-86
2022/12/01 07:15:53;;;;;;;42.47;17.13;;;;;;;5.31;100.00;102608.19;5058420;28;20028;-86
2022/12/01 07:18:19;;;;;;;38.47;15.73;;;;;;;5.34;100.00;102607.06;5075302;28;20063;-86
2022/12/01 07:20:47;;;;;;;44.03;17.07;;;;;;;5.34;100.00;102610.59;5058184;28;20068;-87
2022/12/01 07:23:20;;;;;;;46.15;17.02;;;;;;;5.32;100.00;102607.19;5058547;28;20080;-87
2022/12/01 07:25:46;;;;;;;43.95;16.77;;;;;;;5.34;100.00;102613.28;5075133;28;20034;-86
2022/12/01 07:28:11;;;;;;;43.33;16.33;;;;;;;5.37;100.00;102618.41;5075024;28;20119;-86
2022/12/01 07:30:40;;;;;;;41.47;16.40;;;;;;;5.35;100.00;102617.69;5094325;28;20036;-87
2022/12/01 07:39:59;;;;;;;40.25;16.85;;;;;;;5.40;100.00;102607.38;5061987;28;20058;-86
2022/12/01 07:42:25;;;;;;;41.83;16.30;;;;;;;5.42;100.00;102615.31;5078753;28;20028;-86
2022/12/01 07:44:50;;;;;;;40.42;17.17;;;;;;;5.45;100.00;102617.72;5078298;28;20487;-86
2022/12/01 07:47:18;;;;;;;43.37;16.60;;;;;;;5.42;100.00;102618.00;5077969;28;20039;-86
2022/12/01 07:50:06;;;;;;;44.08;17.17;;;;;;;5.45;100.00;102618.56;5096500;28;20067;-87
2022/12/01 07:52:32;;;;;;;40.58;16.52;;;;;;;5.48;100.00;102622.84;5077886;28;20126;-86
2022/12/01 07:54:57;;;;;;;44.88;16.52;;;;;;;5.50;100.00;102614.63;5078021;28;20038;-86
2022/12/01 07:57:23;;;;;;;41.10;17.20;;;;;;;5.51;100.00;102621.72;5078341;28;20036;-86
2022/12/01 07:59:48;;;;;;;43.60;16.90;;;;;;;5.53;100.00;102631.34;5078152;28;20031;-86
2022/12/01 08:02:14;;;;;;;47.28;17.98;;;;;;;5.54;100.00;102622.28;5096167;28;20452;-86
2022/12/01 08:04:42;;;;;;;41.13;16.53;;;;;;;5.60;100.00;102627.09;5078392;28;20089;-86
2022/12/01 08:07:07;;;;;;;40.40;16.80;;;;;;;5.58;100.00;102631.78;5096571;28;20070;-86
2022/12/01 08:09:33;;;;;;;43.70;17.13;;;;;;;5.63;100.00;102636.75;5096393;28;20036;-86
2022/12/01 08:11:58;;;;;;;44.13;16.73;;;;;;;5.63;100.00;102642.13;5077761;28;20089;-87
2022/12/01 08:14:26;;;;;;;40.73;17.20;;;;;;;5.67;100.00;102646.25;5078226;28;20050;-87
2022/12/01 08:16:51;;;;;;;43.65;17.42;;;;;;;5.73;100.00;102648.38;5096374;28;20035;-87
2022/12/01 08:19:17;;;;;;;42.55;16.90;;;;;;;5.80;100.00;102643.28;5077711;28;20036;-87
2022/12/01 08:21:42;;;;;;;42.37;16.37;;;;;;;5.85;100.00;102650.97;5095439;28;20036;-87
2022/12/01 08:24:09;;;;;;;40.10;16.87;;;;;;;5.88;100.00;102645.31;5061801;28;20469;-87
2022/12/01 08:26:35;;;;;;;45.90;19.52;;;;;;;5.88;100.00;102642.59;5078069;28;20032;-87
2022/12/01 08:29:00;;;;;;;47.57;18.60;;;;;;;5.90;100.00;102646.00;5060950;28;20035;-87
2022/12/01 08:31:31;;;;;;;44.40;18.43;;;;;;;5.95;100.00;102649.13;5061088;28;20517;-87
2022/12/01 08:33:57;;;;;;;40.42;16.35;;;;;;;6.01;100.00;102650.44;5078351;28;20020;-87
2022/12/01 08:36:23;;;;;;;44.70;16.25;;;;;;;6.03;100.00;102651.16;5095431;28;20028;-87
2022/12/01 08:38:54;;;;;;;41.85;17.55;;;;;;;6.07;100.00;102649.88;5060706;28;20369;-86
2022/12/01 08:41:27;;;;;;;35.38;15.15;;;;;;;6.11;100.00;102656.66;5077361;28;20467;-86
2022/12/01 08:43:53;;;;;;;39.55;16.40;;;;;;;6.13;100.00;102652.84;5077039;28;20024;-85
2022/12/01 08:46:18;;;;;;;38.70;17.85;;;;;;;6.20;100.00;102650.44;5061178;28;20036;-87
2022/12/01 08:48:46;;;;;;;40.30;18.23;;;;;;;6.26;100.00;102660.66;5076803;28;20510;-86
2022/12/01 08:51:14;;;;;;;38.88;16.75;;;;;;;6.31;100.00;102662.94;5077549;28;20133;-86
2022/12/01 08:53:44;;;;;;;40.30;17.80;;;;;;;6.37;100.00;102653.41;5077156;28;20035;-86
2022/12/01 08:56:15;;;;;;;40.83;16.83;;;;;;;6.41;100.00;102660.22;5077470;28;20036;-86
2022/12/01 08:58:40;;;;;;;37.03;16.70;;;;;;;6.41;100.00;102650.28;5076868;28;20110;-86
2022/12/01 09:01:10;;;;;;;40.83;18.08;;;;;;;6.45;100.00;102659.78;5077936;28;20107;-87
2022/12/01 09:03:37;;;;;;;36.07;16.80;;;;;;;6.48;99.77;102662.19;5077293;28;20035;-85
2022/12/01 09:06:03;;;;;;;44.03;18.15;;;;;;;6.50;99.34;102660.19;5077423;28;20032;-86
2022/12/01 09:08:30;;;;;;;40.67;16.45;;;;;;;6.49;98.89;102654.94;5094984;28;20039;-85
2022/12/01 09:10:58;;;;;;;38.42;17.27;;;;;;;6.51;98.84;102658.38;5060797;28;20036;-87
2022/12/01 09:13:24;;;;;;;39.63;17.50;;;;;;;6.50;98.59;102648.56;5076517;28;20058;-87
2022/12/01 09:16:02;;;;;;;41.53;17.37;;;;;;;6.60;98.82;102660.19;5076913;28;20032;-86
2022/12/01 09:18:30;;;;;;;39.83;17.00;;;;;;;6.63;98.29;102661.75;5076710;28;20028;-87
2022/12/01 09:20:57;;;;;;;38.22;18.67;;;;;;;6.67;98.11;102657.75;5076856;28;20059;-87
2022/12/01 09:23:25;;;;;;;39.15;17.25;;;;;;;6.73;97.84;102659.91;5094920;28;20028;-86
2022/12/01 09:25:52;;;;;;;38.17;17.77;;;;;;;6.75;97.32;102660.59;5077292;28;20103;-86
2022/12/01 09:28:20;;;;;;;36.63;16.37;;;;;;;6.82;96.75;102661.72;5077053;28;20035;-87
2022/12/01 09:30:46;;;;;;;42.05;17.08;;;;;;;6.84;95.20;102661.56;5076549;28;20024;-87
2022/12/01 09:33:12;;;;;;;38.92;17.92;;;;;;;6.82;95.59;102659.00;5076957;28;20084;-86
2022/12/01 09:35:37;;;;;;;42.22;16.83;;;;;;;6.85;95.86;102663.28;5076211;28;20541;-87
2022/12/01 09:38:06;;;;;;;38.37;16.87;;;;;;;6.95;95.76;102666.81;5077088;28;20031;-87
2022/12/01 09:40:37;;;;;;;38.78;17.02;;;;;;;6.96;95.31;102664.94;5094200;28;20024;-87
2022/12/01 09:43:09;;;;;;;37.95;17.02;;;;;;;6.99;95.10;102670.03;5076678;28;20464;-87
2022/12/01 09:45:44;;;;;;;41.30;17.67;;;;;;;7.06;94.90;102668.47;5076156;28;20032;-86
2022/12/01 09:48:29;;;;;;;40.37;16.70;;;;;;;7.15;94.97;102670.25;5094469;28;20464;-87
2022/12/01 09:50:55;;;;;;;40.85;17.13;;;;;;;7.21;94.90;102663.41;5076382;28;20102;-87
2022/12/01 09:53:33;;;;;;;41.70;17.98;;;;;;;7.27;94.57;102667.38;5042403;28;20036;-87
2022/12/01 09:55:59;;;;;;;38.22;17.27;;;;;;;7.24;93.38;102663.13;5076780;28;20030;-86
2022/12/01 09:58:28;;;;;;;40.58;18.35;;;;;;;7.31;93.22;102653.44;5076786;28;20032;-86
2022/12/01 10:00:53;;;;;;;37.05;18.00;;;;;;;7.36;92.51;102653.81;5076508;28;20380;-85
2022/12/01 10:03:25;;;;;;;39.73;18.60;;;;;;;7.47;92.64;102660.88;5075947;28;20046;-86
2022/12/01 10:05:58;;;;;;;42.22;17.25;;;;;;;7.51;91.90;102653.31;5076319;28;20549;-86
2022/12/01 10:08:28;;;;;;;42.08;17.30;;;;;;;7.59;91.24;102652.56;5094295;28;20436;-85
2022/12/01 10:10:57;;;;;;;40.22;18.33;;;;;;;7.68;91.24;102648.97;5076097;28;20423;-86
2022/12/01 10:13:25;;;;;;;39.70;17.17;;;;;;;7.72;89.73;102648.50;5093727;28;20101;-86
2022/12/01 10:16:09;;;;;;;41.83;18.70;;;;;;;7.84;89.99;102656.38;5076036;28;20416;-86
2022/12/01 10:19:02;;;;;;;44.38;18.30;;;;;;;7.89;89.76;102656.78;5076172;28;20422;-85
2022/12/01 10:21:44;;;;;;;42.00;17.92;;;;;;;7.96;89.82;102644.34;5094416;28;20024;-85
2022/12/01 10:24:32;;;;;;;35.78;17.83;;;;;;;8.04;88.98;102649.81;5075761;28;20035;-85
2022/12/01 10:27:14;;;;;;;42.33;18.38;;;;;;;8.09;88.33;102641.28;5094283;28;20028;-85
2022/12/01 10:30:00;;;;;;;40.33;17.55;;;;;;;8.11;88.24;102641.13;5075719;28;20040;-85
2022/12/01 10:32:35;;;;;;;41.08;17.85;;;;;;;8.18;87.16;102642.16;5093830;28;20096;-86
2022/12/01 10:35:01;;;;;;;41.58;19.25;;;;;;;8.30;86.88;102640.06;5093747;28;20031;-85
2022/12/01 10:37:30;;;;;;;42.10;18.23;;;;;;;8.48;85.31;102629.28;5075919;28;20036;-86
2022/12/01 10:39:57;;;;;;;39.13;17.02;;;;;;;8.55;83.92;102627.66;5075031;28;20020;-85
2022/12/01 10:42:50;;;;;;;48.63;18.92;;;;;;;8.63;84.33;102629.56;5075573;28;20151;-86
2022/12/01 10:45:25;;;;;;;39.45;17.83;;;;;;;8.68;83.45;102619.94;5093348;28;20571;-86
2022/12/01 10:48:14;;;;;;;38.97;17.93;;;;;;;8.86;84.03;102619.88;5075647;28;20038;-85
2022/12/01 10:50:42;;;;;;;40.30;17.15;;;;;;;9.03;82.19;102614.53;5093752;28;20472;-86
2022/12/01 10:53:25;;;;;;;40.03;17.95;;;;;;;9.09;82.38;102612.06;5075517;28;20024;-85
2022/12/01 10:56:02;;;;;;;41.08;18.27;;;;;;;9.22;81.02;102618.88;5093251;28;20143;-85
2022/12/01 10:58:29;;;;;;;41.33;17.60;;;;;;;9.42;80.47;102616.72;5075666;28;20028;-86
2022/12/01 11:00:58;;;;;;;43.27;18.70;;;;;;;9.55;79.26;102619.84;5075659;28;20383;-86
2022/12/01 11:03:29;;;;;;;41.22;18.13;;;;;;;9.71;78.94;102620.88;5093453;28;20025;-85
2022/12/01 11:05:58;;;;;;;41.10;18.77;;;;;;;9.81;78.57;102616.16;5076869;28;20032;-86
2022/12/01 11:08:37;;;;;;;40.85;18.38;;;;;;;10.02;79.37;102610.22;5097503;28;20039;-85
2022/12/01 11:11:03;;;;;;;38.38;17.67;;;;;;;10.22;76.96;102609.91;5097384;28;20020;-87
2022/12/01 11:13:34;;;;;;;40.03;18.47;;;;;;;10.31;75.91;102612.44;5078946;28;20494;-86
2022/12/01 11:16:02;;;;;;;37.15;17.13;;;;;;;10.34;75.41;102611.28;5079292;28;20047;-87
2022/12/01 11:18:36;;;;;;;41.53;18.48;;;;;;;10.34;76.22;102612.13;5079609;28;20067;-87
2022/12/01 11:21:12;;;;;;;36.92;18.58;;;;;;;10.16;75.28;102608.72;5079284;28;20118;-87
2022/12/01 11:23:47;;;;;;;38.33;17.65;;;;;;;10.05;76.61;102609.91;5097690;28;20448;-88
2022/12/01 11:26:22;;;;;;;37.67;18.30;;;;;;;10.03;77.35;102603.81;5079689;28;20031;-87
2022/12/01 11:28:51;;;;;;;37.47;18.00;;;;;;;10.06;76.69;102602.63;5078880;28;20031;-86
2022/12/01 11:31:20;;;;;;;37.08;17.73;;;;;;;9.92;76.33;102596.00;5096932;28;20020;-86
2022/12/01 11:33:51;;;;;;;36.58;17.75;;;;;;;9.77;76.75;102583.13;5079225;28;20020;-86
2022/12/01 11:36:56;;;;;;;35.00;17.92;;;;;;;9.86;79.80;102591.25;5078800;28;20024;-88
2022/12/01 11:39:21;;;;;;;43.60;17.97;;;;;;;9.73;77.04;102591.72;5007483;28;20054;-86